Time;durP1;ratioP1;P1;durP2;ratioP2;P2;SDS_P1;SDS_P2;PMS_P1;PMS_P2;Temp;Humidity;BMP_temperature;BMP_pressure;BME280_temperature;BME280_humidity;BME280_pressure;Samples;Min_cycle;Max_cycle;Signal;HPM_P1;HPM_P2
2022/09/05 00:00:37;;;;;;;7.00;4.10;;;;;;;17.41;59.67;99872.23;238386;1191;139264;-59
2022/09/05 00:06:08;;;;;;;6.80;4.00;;;;;;;17.47;59.95;99874.40;238703;1191;139680;-57
2022/09/05 00:11:50;;;;;;;8.20;4.60;;;;;;;17.49;59.65;99869.02;238543;1191;139611;-58
2022/09/05 00:17:38;;;;;;;6.50;4.00;;;;;;;17.47;59.63;99867.62;238766;1190;139959;-57
2022/09/05 00:23:19;;;;;;;7.00;3.80;;;;;;;17.41;59.35;99865.03;238691;1190;140296;-58
2022/09/05 00:29:06;;;;;;;4.50;3.80;;;;;;;17.35;59.33;99866.95;238539;1192;139273;-56
2022/09/05 00:35:05;;;;;;;6.90;4.00;;;;;;;17.30;59.04;99862.27;238139;1190;140342;-60
2022/09/05 00:40:41;;;;;;;6.10;4.10;;;;;;;17.21;59.26;99859.71;238790;1190;139412;-60
2022/09/05 00:46:11;;;;;;;7.00;3.90;;;;;;;17.11;59.17;99861.41;238550;1191;139037;-57
2022/09/05 00:51:43;;;;;;;6.30;4.10;;;;;;;17.01;59.29;99862.70;238778;1190;139608;-58
2022/09/05 00:57:41;;;;;;;6.80;3.90;;;;;;;16.91;59.23;99861.23;238887;1192;140523;-59
2022/09/05 01:03:24;;;;;;;5.60;4.10;;;;;;;16.85;59.27;99863.89;238934;1190;140600;-59
2022/09/05 01:08:45;;;;;;;5.90;3.80;;;;;;;16.79;59.38;99863.08;238940;1190;139554;-59
2022/09/05 01:14:09;;;;;;;5.50;3.90;;;;;;;16.73;59.41;99865.44;238735;1190;139662;-59
2022/09/05 01:19:50;;;;;;;;;;;;;;;16.66;59.68;99863.29;238829;1191;140049;-59
2022/09/05 01:25:32;;;;;;;7.50;4.10;;;;;;;16.56;59.66;99857.42;238766;1191;126061;-58
2022/09/05 01:31:17;;;;;;;5.80;4.10;;;;;;;16.47;59.84;99856.08;238587;1192;140166;-57
2022/09/05 01:36:49;;;;;;;5.20;4.10;;;;;;;16.42;60.11;99858.95;238754;1190;139926;-58
2022/09/05 01:42:35;;;;;;;8.30;4.30;;;;;;;16.38;60.02;99858.20;238830;1190;140080;-58
2022/09/05 01:47:55;;;;;;;9.20;4.10;;;;;;;16.40;60.14;99855.59;237550;1192;139752;-56
2022/09/05 01:53:37;;;;;;;8.20;4.00;;;;;;;16.45;60.04;99863.56;238756;1191;140228;-58
2022/09/05 01:59:22;;;;;;;4.90;4.30;;;;;;;16.48;60.01;99864.25;238764;1191;139387;-58
2022/09/05 02:05:12;;;;;;;5.90;4.50;;;;;;;16.52;60.15;99873.11;238813;1190;140105;-58
2022/09/05 02:10:39;;;;;;;5.80;4.50;;;;;;;16.54;60.02;99873.49;238471;1191;139033;-57
2022/09/05 02:16:27;;;;;;;4.30;3.90;;;;;;;16.50;60.10;99873.08;238754;1190;140741;-56
2022/09/05 02:22:05;;;;;;;6.90;4.60;;;;;;;16.46;59.91;99877.89;238868;1190;139342;-57
2022/09/05 02:27:36;;;;;;;5.00;4.40;;;;;;;16.41;60.02;99879.09;238760;1190;139462;-60
2022/09/05 02:33:28;;;;;;;7.90;4.60;;;;;;;16.40;59.85;99879.91;238720;1192;139580;-58
2022/09/05 02:38:58;;;;;;;7.70;3.90;;;;;;;16.37;59.91;99884.79;238794;1192;139787;-57
2022/09/05 02:45:12;;;;;;;4.60;4.10;;;;;;;16.38;59.87;99880.61;238693;1192;140348;-57
2022/09/05 02:50:56;;;;;;;5.60;4.30;;;;;;;16.39;60.06;99883.35;238904;1190;140101;-57
2022/09/05 02:57:08;;;;;;;7.20;4.90;;;;;;;16.40;59.98;99887.23;238804;1192;139507;-57
2022/09/05 03:03:19;;;;;;;6.50;4.70;;;;;;;16.38;59.89;99884.54;238530;1191;223958;-57
2022/09/05 03:09:00;;;;;;;6.40;4.20;;;;;;;16.35;59.94;99881.14;238722;1190;139883;-55
2022/09/05 03:15:01;;;;;;;5.50;4.40;;;;;;;16.29;59.95;99881.53;238843;1191;139604;-57
2022/09/05 03:20:53;;;;;;;7.00;4.70;;;;;;;16.19;59.85;99883.89;238694;1190;139908;-57
2022/09/05 03:27:19;;;;;;;8.70;5.00;;;;;;;16.08;59.90;99884.73;238694;1191;139047;-60
2022/09/05 03:33:04;;;;;;;5.90;4.00;;;;;;;15.98;59.78;99886.33;238407;1191;139293;-59
2022/09/05 03:38:42;;;;;;;7.20;4.50;;;;;;;15.89;59.99;99888.73;238713;1192;139823;-59
2022/09/05 03:44:43;;;;;;;6.10;4.60;;;;;;;15.87;60.09;99884.26;238874;1190;140420;-59
2022/09/05 03:50:16;;;;;;;7.10;5.40;;;;;;;15.85;60.26;99892.40;238721;1190;139431;-58
2022/09/05 03:56:22;;;;;;;6.90;5.10;;;;;;;15.85;60.25;99895.11;238599;1192;140098;-60
2022/09/05 04:02:07;;;;;;;6.90;5.10;;;;;;;15.78;60.01;99896.66;238726;1192;139207;-58
2022/09/05 04:07:58;;;;;;;7.40;5.20;;;;;;;15.70;60.02;99901.89;238688;1190;141018;-59
2022/09/05 04:13:54;;;;;;;6.80;4.60;;;;;;;15.56;59.94;99916.05;238741;1190;139383;-60
2022/09/05 04:19:26;;;;;;;8.70;5.00;;;;;;;15.47;60.16;99914.20;238474;1190;140547;-59
2022/09/05 04:24:52;;;;;;;9.10;5.20;;;;;;;15.37;60.26;99930.02;238472;1192;139357;-60
2022/09/05 04:30:33;;;;;;;7.90;4.70;;;;;;;15.34;60.23;99935.92;238467;1192;140550;-58
2022/09/05 04:36:17;;;;;;;9.60;5.50;;;;;;;15.33;60.59;99944.98;238867;1191;139703;-58
2022/09/05 04:41:41;;;;;;;8.40;4.90;;;;;;;15.28;60.43;99947.46;238758;1190;139210;-58
2022/09/05 04:47:13;;;;;;;7.70;5.40;;;;;;;15.23;60.46;99948.52;238829;1190;139198;-58
2022/09/05 04:53:03;;;;;;;9.00;5.30;;;;;;;15.20;60.55;99957.64;238710;1190;139558;-58
2022/09/05 04:58:35;;;;;;;6.70;5.10;;;;;;;15.19;60.75;99963.80;238749;1192;140347;-57
2022/09/05 05:04:21;;;;;;;6.60;5.20;;;;;;;15.19;60.96;99973.80;238739;1190;139716;-57
2022/09/05 05:10:07;;;;;;;9.10;5.90;;;;;;;15.20;60.97;99979.11;238681;1191;140079;-59
2022/09/05 05:15:56;;;;;;;6.80;5.30;;;;;;;15.24;61.16;99982.60;238874;1192;139578;-58
2022/09/05 05:21:44;;;;;;;15.10;6.00;;;;;;;15.36;61.34;99991.30;238820;1190;140201;-58
2022/09/05 05:27:15;;;;;;;11.20;6.20;;;;;;;15.49;61.40;99990.23;238928;1190;140805;-58
2022/09/05 05:32:41;;;;;;;10.80;6.70;;;;;;;15.59;61.41;99991.48;238713;1190;140666;-58
2022/09/05 05:38:32;;;;;;;9.10;6.70;;;;;;;15.67;61.35;99990.44;238831;1190;139671;-58
2022/09/05 05:43:53;;;;;;;8.20;6.70;;;;;;;15.76;61.47;99992.16;238505;1190;139301;-57
2022/09/05 05:49:43;;;;;;;12.40;6.70;;;;;;;15.83;61.57;99991.52;238657;1191;139915;-57
2022/09/05 05:55:12;;;;;;;13.10;6.50;;;;;;;15.93;61.47;99998.40;238774;1190;140400;-57
2022/09/05 06:01:07;;;;;;;13.10;7.10;;;;;;;16.01;61.47;100004.96;238692;1192;139942;-58
2022/09/05 06:07:24;;;;;;;10.60;6.40;;;;;;;16.10;61.70;100008.10;238748;1191;139538;-56
2022/09/05 06:13:13;;;;;;;14.30;6.70;;;;;;;16.24;61.49;100007.66;238496;1191;140707;-57
2022/09/05 06:19:10;;;;;;;15.20;7.20;;;;;;;16.42;61.77;100005.84;238751;1190;141159;-57
2022/09/05 06:24:58;;;;;;;11.20;6.70;;;;;;;16.63;61.91;100015.13;238664;1190;140520;-57
2022/09/05 06:30:57;;;;;;;8.40;6.20;;;;;;;16.82;61.77;100018.77;238695;1190;139839;-57
2022/09/05 06:36:51;;;;;;;9.00;6.20;;;;;;;17.01;61.84;100023.33;238724;1190;139919;-57
2022/09/05 06:42:30;;;;;;;9.80;6.20;;;;;;;17.16;61.48;100027.99;238693;1190;140439;-57
2022/09/05 06:48:22;;;;;;;8.80;5.80;;;;;;;17.25;61.29;100033.23;238728;1190;139776;-58
2022/09/05 06:54:15;;;;;;;9.50;6.10;;;;;;;17.33;61.06;100038.23;238794;1190;140480;-58
2022/09/05 06:59:56;;;;;;;8.20;5.70;;;;;;;17.42;61.21;100037.20;238484;1192;140338;-58
2022/09/05 07:05:23;;;;;;;9.10;6.10;;;;;;;17.57;60.92;100039.29;238672;1191;141685;-58
2022/09/05 07:11:15;;;;;;;10.90;5.80;;;;;;;17.69;60.88;100044.27;238780;1191;140045;-58
2022/09/05 07:16:46;;;;;;;9.40;4.90;;;;;;;17.84;60.82;100044.64;238594;1190;139963;-57
2022/09/05 07:22:13;;;;;;;7.90;5.40;;;;;;;17.96;60.90;100041.16;238590;1191;140504;-57
2022/09/05 07:28:09;;;;;;;8.20;5.40;;;;;;;18.01;60.40;100041.02;238549;1191;140778;-57
2022/09/05 07:34:03;;;;;;;8.50;4.50;;;;;;;18.04;60.42;100043.83;238662;1192;139778;-58
2022/09/05 07:39:46;;;;;;;8.50;4.90;;;;;;;18.09;60.33;100039.67;238758;1191;141000;-58
2022/09/05 07:45:12;;;;;;;6.30;5.00;;;;;;;18.14;60.43;100043.23;238763;1190;140216;-58
2022/09/05 07:50:46;;;;;;;9.30;5.00;;;;;;;18.27;60.54;100041.30;238426;1192;140692;-58
2022/09/05 07:56:58;;;;;;;7.20;5.30;;;;;;;18.48;60.37;100042.91;238546;1192;140171;-58
2022/09/05 08:02:44;;;;;;;7.70;4.70;;;;;;;18.65;60.41;100043.02;238777;1190;139512;-58
2022/09/05 08:08:13;;;;;;;10.20;4.90;;;;;;;18.74;60.17;100040.90;238734;1190;139860;-57
2022/09/05 08:13:53;;;;;;;9.90;4.90;;;;;;;18.79;60.00;100036.69;238636;1190;140318;-57
2022/09/05 08:19:40;;;;;;;8.50;4.70;;;;;;;18.91;59.88;100040.55;238479;1192;140325;-56
2022/09/05 08:25:28;;;;;;;8.50;4.70;;;;;;;19.00;59.75;100035.19;238373;1190;140317;-60
2022/09/05 08:31:19;;;;;;;6.00;3.90;;;;;;;19.14;59.69;100033.90;238868;1190;140459;-57
2022/09/05 08:36:47;;;;;;;10.20;4.20;;;;;;;19.26;59.33;100025.11;238690;1190;139962;-57
2022/09/05 08:42:20;;;;;;;10.60;5.90;;;;;;;19.35;59.19;100020.77;238471;1192;140256;-56
2022/09/05 08:47:41;;;;;;;13.10;5.50;;;;;;;19.49;59.00;100018.19;238468;1191;139677;-56
2022/09/05 08:53:17;;;;;;;8.80;4.50;;;;;;;19.63;58.56;100016.33;238804;1190;141209;-58
2022/09/05 08:59:19;;;;;;;7.00;4.30;;;;;;;19.75;58.34;100008.65;238601;1190;140464;-57
2022/09/05 09:05:06;;;;;;;17.30;8.90;;;;;;;19.92;58.29;99998.91;238657;1192;237753;-57
2022/09/05 09:10:53;;;;;;;16.50;7.10;;;;;;;20.06;58.09;99999.86;238616;1190;140738;-58
2022/09/05 09:16:57;;;;;;;12.40;5.70;;;;;;;20.21;57.65;99996.09;238740;1190;140854;-59
2022/09/05 09:22:50;;;;;;;9.00;4.80;;;;;;;20.38;57.26;99989.16;238641;1192;140971;-57
2022/09/05 09:28:44;;;;;;;10.30;5.10;;;;;;;20.56;57.05;99993.36;238113;1192;139699;-60
2022/09/05 09:34:25;;;;;;;6.30;3.50;;;;;;;20.72;56.45;99983.66;238769;1190;139594;-57
2022/09/05 09:40:22;;;;;;;10.20;6.40;;;;;;;20.86;56.42;99981.69;238648;1192;140531;-56
2022/09/05 09:45:57;;;;;;;6.50;4.60;;;;;;;20.99;55.83;99979.26;238557;1192;139201;-58
2022/09/05 09:51:38;;;;;;;;;;;;;;;21.14;55.66;99973.39;238887;1190;139835;-57
2022/09/05 09:57:04;;;;;;;8.00;4.10;;;;;;;21.30;54.84;99970.64;238875;1190;125458;-57
2022/09/05 10:02:32;;;;;;;5.80;3.30;;;;;;;21.49;54.74;99970.20;238588;1190;139449;-57
2022/09/05 10:08:41;;;;;;;8.10;3.80;;;;;;;21.70;54.65;99958.45;238725;1190;139942;-58
2022/09/05 10:14:25;;;;;;;5.70;3.30;;;;;;;21.88;54.15;99955.34;238746;1190;139779;-57
2022/09/05 10:20:24;;;;;;;10.10;3.70;;;;;;;22.00;53.89;99960.30;238611;1190;139923;-58
2022/09/05 10:26:22;;;;;;;5.10;3.60;;;;;;;22.33;53.85;99955.55;238792;1190;140874;-58
2022/09/05 10:31:55;;;;;;;10.10;3.40;;;;;;;22.52;53.19;99955.36;238772;1190;140851;-56
2022/09/05 10:37:40;;;;;;;10.90;3.90;;;;;;;22.31;52.49;99953.61;238712;1191;139602;-57
2022/09/05 10:43:12;;;;;;;8.40;4.50;;;;;;;22.42;52.71;99946.17;238701;1191;141694;-57
2022/09/05 10:48:47;;;;;;;6.70;3.20;;;;;;;22.59;52.35;99943.85;238896;1190;139151;-57
2022/09/05 10:54:49;;;;;;;10.20;4.00;;;;;;;22.49;51.35;99946.41;238530;1191;141499;-57
2022/09/05 11:00:42;;;;;;;5.60;3.40;;;;;;;22.34;51.25;99948.43;238769;1191;139648;-58
2022/09/05 11:06:51;;;;;;;5.30;3.30;;;;;;;22.25;51.32;99938.79;238775;1190;139066;-58
2022/09/05 11:12:32;;;;;;;6.80;3.40;;;;;;;22.31;51.23;99930.64;238762;1190;140011;-57
2022/09/05 11:18:01;;;;;;;5.30;3.00;;;;;;;22.58;50.97;99926.51;238331;1191;141085;-57
2022/09/05 11:23:33;;;;;;;5.00;2.70;;;;;;;22.91;50.71;99923.66;238562;1191;139939;-57
2022/09/05 11:29:04;;;;;;;;;;;;;;;23.11;49.92;99922.36;238748;1190;139178;-58
2022/09/05 11:34:30;;;;;;;8.50;2.70;;;;;;;23.27;49.86;99916.41;238652;1190;125882;-58
2022/09/05 11:40:56;;;;;;;4.20;2.70;;;;;;;23.56;49.50;99911.51;238775;1191;139633;-57
2022/09/05 11:46:30;;;;;;;5.50;3.20;;;;;;;23.87;48.87;99899.80;238425;1192;139145;-57
2022/09/05 11:52:06;;;;;;;3.90;2.70;;;;;;;24.18;48.80;99896.74;238644;1191;139452;-57
2022/09/05 11:57:48;;;;;;;5.70;2.70;;;;;;;24.54;48.19;99894.55;238819;1190;139429;-57
2022/09/05 12:03:27;;;;;;;5.00;2.30;;;;;;;24.90;47.35;99889.59;238739;1190;139466;-55
2022/09/05 12:09:24;;;;;;;6.70;2.60;;;;;;;25.23;46.99;99886.45;238519;1191;139873;-58
2022/09/05 12:14:57;;;;;;;6.00;2.50;;;;;;;25.58;46.54;99877.95;238650;1190;140034;-58
2022/09/05 12:20:29;;;;;;;9.50;2.80;;;;;;;25.36;45.23;99883.47;238720;1190;139729;-58
2022/09/05 12:26:09;;;;;;;5.00;2.90;;;;;;;24.85;45.10;99879.95;238589;1191;139866;-58
2022/09/05 12:31:59;;;;;;;5.00;2.60;;;;;;;25.12;45.72;99878.52;238648;1190;143969;-59
2022/09/05 12:38:13;;;;;;;5.10;3.30;;;;;;;25.60;45.58;99868.88;238727;1190;139890;-58
2022/09/05 12:44:00;;;;;;;61.30;47.70;;;;;;;26.09;44.98;99864.80;238498;1190;140459;-58
2022/09/05 12:49:56;;;;;;;9.20;4.30;;;;;;;26.37;44.23;99860.98;238735;1191;139554;-59
2022/09/05 12:55:41;;;;;;;5.90;2.70;;;;;;;26.07;43.16;99859.34;238575;1190;140235;-58
2022/09/05 13:01:42;;;;;;;7.00;2.90;;;;;;;25.69;43.09;99851.87;238651;1190;139498;-58
2022/09/05 13:07:33;;;;;;;4.90;2.50;;;;;;;25.68;42.94;99847.23;238605;1190;139234;-59
2022/09/05 13:13:01;;;;;;;6.30;2.60;;;;;;;25.93;43.24;99843.92;238536;1192;139001;-58
2022/09/05 13:18:43;;;;;;;3.60;2.40;;;;;;;26.29;43.09;99835.44;238778;1190;142067;-59
2022/09/05 13:24:10;;;;;;;8.90;2.40;;;;;;;26.55;42.70;99833.36;238746;1190;139774;-58
2022/09/05 13:29:54;;;;;;;4.40;2.70;;;;;;;26.27;41.45;99834.02;238432;1191;140783;-59
2022/09/05 13:35:48;;;;;;;5.60;2.60;;;;;;;25.84;41.32;99831.84;238499;1192;139939;-59
2022/09/05 13:41:36;;;;;;;4.70;2.10;;;;;;;26.03;41.42;99825.84;238721;1190;139344;-57
2022/09/05 13:47:29;;;;;;;3.40;2.40;;;;;;;26.27;41.38;99827.09;238700;1190;140127;-58
2022/09/05 13:53:03;;;;;;;3.80;2.60;;;;;;;26.41;41.06;99824.02;238676;1192;140238;-58
2022/09/05 13:58:43;;;;;;;5.80;2.40;;;;;;;26.55;40.89;99817.53;238751;1191;141180;-58
2022/09/05 14:04:41;;;;;;;9.20;2.80;;;;;;;26.65;40.78;99819.23;238766;1192;139724;-59
2022/09/05 14:10:46;;;;;;;5.90;2.50;;;;;;;26.46;40.47;99816.84;238847;1190;139419;-58
2022/09/05 14:16:15;;;;;;;4.10;2.30;;;;;;;26.08;40.19;99816.16;238834;1191;139828;-58
2022/09/05 14:21:39;;;;;;;3.00;2.20;;;;;;;25.64;40.06;99817.48;238755;1191;140181;-56
2022/09/05 14:27:01;;;;;;;4.20;2.20;;;;;;;25.19;39.94;99820.04;238682;1190;139416;-59
2022/09/05 14:32:18;;;;;;;4.00;2.50;;;;;;;24.87;39.97;99817.30;238621;1191;139579;-58
2022/09/05 14:38:00;;;;;;;4.20;2.50;;;;;;;24.58;40.27;99810.34;238524;1190;140065;-59
2022/09/05 14:43:30;;;;;;;6.40;2.60;;;;;;;24.32;40.08;99803.90;238756;1190;139733;-58
2022/09/05 14:49:00;;;;;;;3.60;2.60;;;;;;;24.14;40.46;99800.16;238652;1190;139663;-57
2022/09/05 14:54:19;;;;;;;4.20;2.20;;;;;;;23.95;40.81;99794.91;238262;1191;141186;-58
2022/09/05 14:59:49;;;;;;;3.50;2.30;;;;;;;23.73;40.74;99791.46;238608;1192;139674;-58
2022/09/05 15:05:12;;;;;;;6.40;2.10;;;;;;;23.55;40.96;99789.38;238634;1190;140486;-59
2022/09/05 15:10:15;;;;;;;26.90;2.80;;;;;;;23.41;41.02;99787.17;238706;1190;141379;-59
2022/09/05 15:15:43;;;;;;;5.00;2.50;;;;;;;23.35;41.30;99786.86;238544;1191;139395;-59
2022/09/05 15:21:37;;;;;;;;;;;;;;;23.29;41.41;99782.95;238606;1190;140780;-58
2022/09/05 15:26:54;;;;;;;5.90;3.40;;;;;;;23.28;41.50;99779.62;238251;1192;126390;-59
2022/09/05 15:32:22;;;;;;;4.30;2.90;;;;;;;23.22;41.80;99781.20;238584;1191;139795;-59
2022/09/05 15:37:30;;;;;;;4.40;2.90;;;;;;;23.10;42.15;99783.52;238539;1191;142871;-59
2022/09/05 15:42:36;;;;;;;4.70;2.40;;;;;;;23.01;42.41;99783.85;238722;1192;140340;-58
2022/09/05 15:47:45;;;;;;;5.20;2.90;;;;;;;22.94;42.72;99783.30;238665;1191;139309;-59
2022/09/05 15:52:51;;;;;;;3.90;2.90;;;;;;;22.86;43.06;99784.66;238736;1191;140865;-59
2022/09/05 15:58:06;;;;;;;4.30;3.00;;;;;;;22.79;43.42;99781.70;238645;1191;139438;-59
2022/09/05 16:03:13;;;;;;;5.20;3.30;;;;;;;22.75;43.89;99777.99;238647;1192;140921;-59
2022/09/05 16:08:59;;;;;;;49.80;6.70;;;;;;;22.71;44.28;99774.55;238432;1190;139091;-57
2022/09/05 16:14:35;;;;;;;37.00;9.90;;;;;;;22.63;44.31;99760.02;238664;1190;140425;-59
2022/09/05 16:19:51;;;;;;;10.70;6.40;;;;;;;22.58;44.37;99760.54;238597;1190;139654;-59
2022/09/05 16:25:21;;;;;;;12.70;7.50;;;;;;;22.52;44.85;99759.11;238513;1191;140697;-58
2022/09/05 16:30:36;;;;;;;7.70;3.60;;;;;;;22.45;44.84;99756.77;238518;1192;140236;-59
2022/09/05 16:36:06;;;;;;;5.90;3.50;;;;;;;22.37;45.11;99757.90;238616;1192;139214;-59
2022/09/05 16:41:15;;;;;;;6.30;3.30;;;;;;;22.31;44.91;99758.17;238701;1190;139596;-58
2022/09/05 16:46:32;;;;;;;8.60;3.50;;;;;;;22.23;44.84;99764.94;238638;1192;139768;-58
2022/09/05 16:52:05;;;;;;;10.90;3.50;;;;;;;22.15;44.64;99768.42;238669;1190;139971;-58
2022/09/05 16:57:15;;;;;;;5.40;3.30;;;;;;;22.06;44.75;99762.45;238793;1190;139799;-58
2022/09/05 17:02:31;;;;;;;7.60;3.70;;;;;;;21.98;44.83;99767.02;238532;1190;141319;-58
2022/09/05 17:07:40;;;;;;;10.60;5.00;;;;;;;21.89;44.87;99759.38;238648;1191;139612;-59
2022/09/05 17:12:44;;;;;;;7.40;4.10;;;;;;;21.80;44.78;99760.58;238733;1190;140196;-58
2022/09/05 17:17:57;;;;;;;8.30;4.30;;;;;;;21.72;45.00;99761.27;238761;1190;139460;-58
2022/09/05 17:23:28;;;;;;;16.10;7.80;;;;;;;21.62;44.96;99764.58;238694;1190;139974;-56
2022/09/05 17:28:52;;;;;;;22.80;11.30;;;;;;;21.52;44.92;99770.08;238615;1191;139492;-58
2022/09/05 17:34:15;;;;;;;12.70;7.70;;;;;;;21.41;45.25;99775.58;238872;1190;140880;-57
2022/09/05 17:39:43;;;;;;;15.40;7.00;;;;;;;21.31;45.57;99778.67;238737;1190;140148;-58
2022/09/05 17:44:47;;;;;;;11.20;5.70;;;;;;;21.18;45.73;99784.76;238365;1192;139709;-57
2022/09/05 17:50:39;;;;;;;14.80;5.30;;;;;;;21.04;45.82;99792.89;238340;1192;140214;-57
2022/09/05 17:55:42;;;;;;;21.00;5.50;;;;;;;20.89;46.04;99799.21;238571;1191;139669;-56
2022/09/05 18:00:48;;;;;;;17.60;4.90;;;;;;;20.80;46.24;99800.05;238766;1190;139932;-58
2022/09/05 18:06:02;;;;;;;15.60;5.40;;;;;;;20.71;46.38;99805.01;238563;1192;139476;-59
2022/09/05 18:11:12;;;;;;;15.10;5.80;;;;;;;20.65;46.62;99803.63;238687;1192;140961;-58
2022/09/05 18:16:34;;;;;;;14.40;5.40;;;;;;;20.61;46.90;99810.29;238797;1190;140854;-57
2022/09/05 18:22:09;;;;;;;15.80;5.30;;;;;;;20.58;47.01;99818.52;238831;1190;141756;-60
2022/09/05 18:27:15;;;;;;;11.60;5.20;;;;;;;20.55;47.29;99818.92;238743;1192;139110;-57
2022/09/05 18:33:06;;;;;;;17.80;5.60;;;;;;;20.53;47.06;99818.04;238561;1191;139929;-55
2022/09/05 18:38:30;;;;;;;8.60;4.80;;;;;;;20.48;46.97;99821.69;238764;1190;140143;-58
2022/09/05 18:44:13;;;;;;;11.90;4.80;;;;;;;20.41;47.13;99829.70;238704;1190;139200;-57
2022/09/05 18:49:36;;;;;;;10.10;4.90;;;;;;;20.37;47.22;99826.30;238518;1192;140365;-57
2022/09/05 18:55:12;;;;;;;9.50;5.20;;;;;;;20.26;46.85;99832.15;238613;1190;140391;-59
2022/09/05 19:00:35;;;;;;;7.80;4.70;;;;;;;20.08;46.51;99837.33;238761;1190;139939;-58
2022/09/05 19:06:09;;;;;;;8.80;4.60;;;;;;;19.93;46.51;99834.70;238661;1190;139590;-58
2022/09/05 19:11:47;;;;;;;9.20;3.70;;;;;;;19.81;46.28;99829.98;238734;1192;139259;-58
2022/09/05 19:17:07;;;;;;;8.60;4.00;;;;;;;19.74;46.05;99834.83;238637;1190;139983;-58
2022/09/05 19:22:11;;;;;;;14.20;4.60;;;;;;;19.67;45.72;99827.36;238855;1190;139812;-57
2022/09/05 19:27:41;;;;;;;9.40;3.80;;;;;;;19.60;45.34;99827.98;238481;1192;140737;-59
2022/09/05 19:33:05;;;;;;;6.20;3.30;;;;;;;19.57;45.05;99824.67;238562;1192;139800;-59
2022/09/05 19:38:31;;;;;;;7.50;3.30;;;;;;;19.54;44.87;99824.95;238743;1190;141993;-59
2022/09/05 19:43:56;;;;;;;;;;;;;;;19.50;44.46;99818.61;238623;1190;139006;-57
2022/09/05 19:49:20;;;;;;;7.00;3.80;;;;;;;19.44;44.23;99814.14;238733;1191;126545;-59
2022/09/05 19:54:35;;;;;;;6.60;3.30;;;;;;;19.37;44.21;99806.42;238505;1191;140042;-59
2022/09/05 19:59:40;;;;;;;7.80;3.50;;;;;;;19.33;44.19;99805.20;238715;1191;139375;-57
2022/09/05 20:04:48;;;;;;;7.10;3.50;;;;;;;19.26;44.11;99804.58;238737;1192;140563;-58
2022/09/05 20:09:56;;;;;;;9.60;3.60;;;;;;;19.16;44.14;99808.63;238833;1190;139218;-59
2022/09/05 20:15:21;;;;;;;6.60;3.50;;;;;;;19.05;44.13;99811.75;238415;1190;139405;-60
2022/09/05 20:20:29;;;;;;;9.10;3.80;;;;;;;18.95;44.18;99804.14;238380;1192;139653;-59
2022/09/05 20:25:52;;;;;;;5.70;3.50;;;;;;;18.84;44.15;99803.62;238517;1191;139717;-58
2022/09/05 20:31:00;;;;;;;6.60;3.20;;;;;;;18.74;44.19;99808.38;238640;1192;139843;-57
2022/09/05 20:36:08;;;;;;;6.20;3.00;;;;;;;18.68;44.30;99808.52;238505;1191;140624;-57
2022/09/05 20:41:31;;;;;;;7.30;2.80;;;;;;;18.62;44.32;99803.08;238516;1192;140622;-57
2022/09/05 20:47:29;;;;;;;7.40;2.80;;;;;;;18.57;44.15;99805.14;238642;1190;139110;-57
2022/09/05 20:52:56;;;;;;;6.80;2.70;;;;;;;18.52;43.83;99797.25;238549;1190;139667;-57
2022/09/05 20:58:23;;;;;;;5.00;2.50;;;;;;;18.47;43.70;99794.42;238681;1190;139846;-57
2022/09/05 21:03:39;;;;;;;5.80;2.30;;;;;;;18.41;43.64;99802.27;238716;1191;139148;-58
2022/09/05 21:08:54;;;;;;;5.90;2.70;;;;;;;18.34;43.59;99812.56;238667;1190;139448;-58
2022/09/05 21:14:03;;;;;;;4.60;2.60;;;;;;;18.27;43.50;99819.09;238707;1191;140648;-59
2022/09/05 21:19:20;;;;;;;7.40;2.60;;;;;;;18.21;43.66;99818.29;238666;1190;140250;-57
2022/09/05 21:24:23;;;;;;;5.90;2.20;;;;;;;18.17;43.65;99816.08;238508;1192;140447;-58
2022/09/05 21:29:26;;;;;;;4.30;2.40;;;;;;;18.14;43.59;99819.58;238670;1191;139504;-58
2022/09/05 21:34:40;;;;;;;5.80;2.70;;;;;;;18.09;43.49;99817.86;238787;1190;140008;-58
2022/09/05 21:39:51;;;;;;;4.60;2.50;;;;;;;18.02;43.46;99815.54;238666;1190;139548;-58
2022/09/05 21:45:00;;;;;;;4.30;2.40;;;;;;;17.96;43.49;99817.98;238675;1192;139890;-57
2022/09/05 21:50:26;;;;;;;5.10;2.40;;;;;;;17.91;43.47;99820.23;238694;1190;141185;-57
2022/09/05 21:55:34;;;;;;;5.80;2.40;;;;;;;17.88;43.42;99817.72;238812;1190;139749;-57
2022/09/05 22:00:56;;;;;;;5.90;2.30;;;;;;;17.83;43.35;99817.76;238442;1192;140272;-57
2022/09/05 22:06:00;;;;;;;9.50;2.80;;;;;;;17.82;43.51;99816.96;238478;1192;139261;-57
2022/09/05 22:11:11;;;;;;;5.40;2.40;;;;;;;17.79;43.37;99814.49;238653;1190;139611;-57
2022/09/05 22:16:14;;;;;;;5.60;2.80;;;;;;;17.76;43.47;99809.54;238631;1192;139522;-58
2022/09/05 22:21:25;;;;;;;5.60;2.70;;;;;;;17.73;43.43;99811.15;238801;1190;139540;-56
2022/09/05 22:26:39;;;;;;;6.60;2.70;;;;;;;17.68;43.31;99808.35;238662;1190;139600;-59
2022/09/05 22:32:04;;;;;;;3.90;2.40;;;;;;;17.61;43.31;99811.76;238578;1192;139446;-59
2022/09/05 22:37:07;;;;;;;4.60;2.60;;;;;;;17.55;43.37;99815.30;238737;1190;139515;-58
2022/09/05 22:42:10;;;;;;;5.20;2.40;;;;;;;17.50;43.50;99814.81;238589;1192;140852;-58
2022/09/05 22:47:13;;;;;;;5.20;2.80;;;;;;;17.45;43.52;99809.95;238596;1192;140854;-59
2022/09/05 22:52:16;;;;;;;5.40;2.20;;;;;;;17.42;43.45;99810.07;238734;1192;139812;-59
2022/09/05 22:57:19;;;;;;;6.40;2.60;;;;;;;17.39;43.62;99807.79;238683;1191;139714;-59
2022/09/05 23:02:22;;;;;;;4.10;2.30;;;;;;;17.37;43.69;99809.38;238847;1190;139822;-59
2022/09/05 23:07:25;;;;;;;4.10;2.30;;;;;;;17.31;43.55;99798.55;238811;1190;139723;-58
2022/09/05 23:12:28;;;;;;;5.10;2.60;;;;;;;17.22;43.65;99786.27;238642;1191;139284;-58
2022/09/05 23:17:31;;;;;;;4.80;1.90;;;;;;;17.16;43.88;99786.98;238453;1192;140014;-59
2022/09/05 23:22:35;;;;;;;4.50;2.30;;;;;;;17.05;43.85;99786.69;238818;1190;139480;-59
2022/09/05 23:27:38;;;;;;;5.60;2.20;;;;;;;16.97;43.97;99778.54;238618;1191;139696;-59
2022/09/05 23:32:46;;;;;;;6.80;2.30;;;;;;;16.91;44.19;99775.10;238632;1191;139206;-59
2022/09/05 23:37:49;;;;;;;7.10;2.20;;;;;;;16.85;44.17;99764.23;238502;1191;141530;-59
2022/09/05 23:42:57;;;;;;;4.60;2.20;;;;;;;16.80;44.26;99761.58;238735;1191;139653;-57
2022/09/05 23:48:01;;;;;;;4.80;2.20;;;;;;;16.75;44.19;99763.71;238763;1192;139597;-59
2022/09/05 23:53:04;;;;;;;4.90;2.40;;;;;;;16.70;44.22;99769.11;238515;1191;139938;-57
2022/09/05 23:58:07;;;;;;;4.50;2.20;;;;;;;16.67;44.61;99774.52;238749;1191;140065;-60
